Time;durP1;ratioP1;P1;durP2;ratioP2;P2;SDS_P1;SDS_P2;PMS_P1;PMS_P2;Temp;Humidity;BMP_temperature;BMP_pressure;BME280_temperature;BME280_humidity;BME280_pressure;Samples;Min_cycle;Max_cycle;Signal;HPM_P1;HPM_P2
2022/10/01 00:01:49;;;;;;;17.40;9.10;;;;;;;15.40;100.00;95096.09;5062629;28;20202;-82
2022/10/01 00:04:16;;;;;;;13.47;8.83;;;;;;;15.31;100.00;95093.88;5057210;28;20233;-83
2022/10/01 00:06:44;;;;;;;17.60;9.77;;;;;;;15.26;100.00;95104.25;5062982;28;20209;-81
2022/10/01 00:09:11;;;;;;;17.70;9.63;;;;;;;15.30;100.00;95107.19;5060348;28;20635;-80
2022/10/01 00:11:38;;;;;;;17.17;10.17;;;;;;;15.34;100.00;95103.06;5065234;28;20208;-82
2022/10/01 00:14:05;;;;;;;21.13;10.60;;;;;;;15.29;100.00;95090.66;5067052;28;20205;-81
2022/10/01 00:16:32;;;;;;;16.73;10.60;;;;;;;15.31;100.00;95106.16;5067181;28;20745;-82
2022/10/01 00:18:59;;;;;;;18.40;10.30;;;;;;;15.30;100.00;95092.25;5066932;28;20212;-81
2022/10/01 00:21:28;;;;;;;21.00;11.47;;;;;;;15.29;100.00;95088.06;5063155;28;20687;-83
2022/10/01 00:23:58;;;;;;;20.33;11.73;;;;;;;15.26;100.00;95099.03;5069250;28;20197;-83
2022/10/01 00:26:27;;;;;;;26.43;14.77;;;;;;;15.31;100.00;95096.50;5062298;28;20206;-83
2022/10/01 00:28:55;;;;;;;28.30;15.90;;;;;;;15.31;100.00;95095.69;5059538;28;20402;-79
2022/10/01 00:31:22;;;;;;;35.30;18.40;;;;;;;15.23;100.00;95096.88;5061952;28;20950;-80
2022/10/01 00:33:52;;;;;;;29.33;18.13;;;;;;;15.24;100.00;95084.56;5057701;28;20232;-79
2022/10/01 00:36:20;;;;;;;30.23;16.63;;;;;;;15.23;100.00;95081.16;5058008;28;20610;-83
2022/10/01 00:38:47;;;;;;;29.97;15.83;;;;;;;15.13;100.00;95090.66;5064591;28;20208;-80
2022/10/01 00:41:16;;;;;;;30.87;17.90;;;;;;;14.85;100.00;95070.50;5061682;28;20263;-81
2022/10/01 00:43:45;;;;;;;32.57;18.03;;;;;;;14.76;100.00;95088.41;5061933;28;20204;-81
2022/10/01 00:46:18;;;;;;;29.47;19.33;;;;;;;14.65;100.00;95076.16;5065326;28;20223;-79
2022/10/01 00:48:52;;;;;;;36.40;20.37;;;;;;;14.58;100.00;95077.31;5062102;28;20223;-88
2022/10/01 00:51:19;;;;;;;33.57;19.30;;;;;;;14.63;100.00;95074.81;5061194;28;20230;-89
2022/10/01 00:53:47;;;;;;;36.07;20.13;;;;;;;14.73;100.00;95088.88;5060570;28;20359;-88
2022/10/01 00:56:15;;;;;;;28.67;20.07;;;;;;;14.78;100.00;95091.59;5057843;28;20206;-88
2022/10/01 00:58:43;;;;;;;36.47;19.83;;;;;;;14.77;100.00;95078.75;5064737;28;20320;-88
2022/10/01 01:01:09;;;;;;;30.70;19.60;;;;;;;14.81;100.00;95085.09;5060751;28;20668;-89
2022/10/01 01:03:37;;;;;;;30.37;19.07;;;;;;;14.79;100.00;95092.38;5063119;28;20205;-87
2022/10/01 01:06:08;;;;;;;19.20;12.67;;;;;;;14.72;100.00;95089.09;5067212;28;20201;-89
2022/10/01 01:08:35;;;;;;;29.27;14.83;;;;;;;14.58;100.00;95072.06;5064840;28;20203;-87
2022/10/01 01:11:12;;;;;;;26.13;14.87;;;;;;;14.62;100.00;95079.25;5063293;28;20216;-86
2022/10/01 01:13:49;;;;;;;22.37;14.17;;;;;;;14.55;100.00;95067.31;5064350;28;20270;-87
2022/10/01 01:16:24;;;;;;;23.73;14.90;;;;;;;14.51;100.00;95063.59;5057494;28;20202;-87
2022/10/01 01:19:00;;;;;;;24.53;15.10;;;;;;;14.62;100.00;95063.56;5064738;28;20197;-85
2022/10/01 01:21:31;;;;;;;23.63;15.27;;;;;;;14.60;100.00;95067.44;5054238;28;20206;-85
2022/10/01 01:24:30;;;;;;;23.53;14.10;;;;;;;14.52;100.00;95073.00;5059273;28;20197;-86
2022/10/01 01:27:11;;;;;;;23.27;14.13;;;;;;;14.43;100.00;95062.09;5067552;28;20213;-87
2022/10/01 01:29:45;;;;;;;25.37;13.97;;;;;;;14.47;100.00;95073.69;5062913;28;20626;-87
2022/10/01 01:32:17;;;;;;;21.70;13.33;;;;;;;14.41;100.00;95069.41;5064754;28;20201;-89
2022/10/01 01:34:49;;;;;;;24.30;13.50;;;;;;;14.43;100.00;95059.50;5067588;28;20210;-87
2022/10/01 01:37:20;;;;;;;21.13;13.03;;;;;;;14.50;100.00;95061.97;5059955;28;20206;-87
2022/10/01 01:39:50;;;;;;;17.63;11.37;;;;;;;14.51;100.00;95087.13;5065273;28;20340;-88
2022/10/01 01:42:23;;;;;;;20.33;11.23;;;;;;;14.31;100.00;95044.84;5061243;28;20221;-87
2022/10/01 01:44:54;;;;;;;21.13;11.43;;;;;;;14.21;100.00;95084.63;5060382;28;20204;-88
2022/10/01 01:47:23;;;;;;;16.47;10.63;;;;;;;14.10;100.00;95101.94;5074131;28;20196;-89
2022/10/01 01:49:52;;;;;;;17.20;10.90;;;;;;;14.10;100.00;95062.72;5063297;28;20241;-88
2022/10/01 01:52:19;;;;;;;14.67;9.13;;;;;;;13.91;100.00;95092.59;5063411;28;20198;-88
2022/10/01 01:54:49;;;;;;;13.10;8.03;;;;;;;13.95;100.00;95066.81;5063677;28;20596;-82
2022/10/01 01:57:18;;;;;;;16.33;9.20;;;;;;;13.98;100.00;95090.69;5060656;28;20683;-81
2022/10/01 01:59:45;;;;;;;14.77;8.90;;;;;;;13.97;100.00;95078.63;5058032;28;20209;-81
2022/10/01 02:02:17;;;;;;;13.77;8.17;;;;;;;13.86;100.00;95078.63;5061855;28;20209;-80
2022/10/01 02:04:47;;;;;;;12.73;7.93;;;;;;;13.73;100.00;95084.09;5058673;28;21512;-81
2022/10/01 02:07:42;;;;;;;16.00;8.77;;;;;;;13.84;100.00;95081.47;5062485;28;20208;-80
2022/10/01 02:10:21;;;;;;;13.07;8.60;;;;;;;13.70;100.00;95106.22;5058219;28;20275;-81
2022/10/01 02:13:02;;;;;;;15.27;8.40;;;;;;;13.74;100.00;95093.53;5058759;28;20232;-81
2022/10/01 02:15:37;;;;;;;13.87;8.00;;;;;;;13.76;100.00;95104.53;5060757;28;20193;-81
2022/10/01 02:18:15;;;;;;;14.07;8.30;;;;;;;13.77;100.00;95088.63;5061009;28;20209;-87
2022/10/01 02:20:48;;;;;;;10.03;7.23;;;;;;;13.83;100.00;95097.38;5059571;28;20296;-88
2022/10/01 02:23:20;;;;;;;12.63;7.53;;;;;;;13.88;100.00;95098.28;5064458;28;20204;-86
2022/10/01 02:25:49;;;;;;;16.13;7.07;;;;;;;13.89;100.00;95101.69;5058481;28;20745;-86
2022/10/01 02:28:21;;;;;;;13.80;7.97;;;;;;;13.99;100.00;95101.94;5063357;28;20589;-88
2022/10/01 02:30:49;;;;;;;11.53;8.40;;;;;;;14.08;100.00;95096.13;5061025;28;20210;-87
2022/10/01 02:33:22;;;;;;;17.00;9.60;;;;;;;14.12;100.00;95117.38;5062338;28;20225;-88
2022/10/01 02:35:52;;;;;;;22.03;10.73;;;;;;;13.98;100.00;95079.44;5063361;28;20209;-87
2022/10/01 02:38:21;;;;;;;19.17;9.37;;;;;;;14.11;100.00;95119.19;5067863;28;20270;-79
2022/10/01 02:40:50;;;;;;;18.10;10.40;;;;;;;14.16;100.00;95116.69;5061221;28;20217;-79
2022/10/01 02:43:22;;;;;;;20.37;10.77;;;;;;;14.10;100.00;95109.78;5059479;28;20203;-78
2022/10/01 02:45:55;;;;;;;21.73;8.77;;;;;;;14.00;100.00;95124.41;5065285;28;20576;-79
2022/10/01 02:48:24;;;;;;;14.60;8.23;;;;;;;14.06;100.00;95106.00;5059046;28;20202;-81
2022/10/01 02:50:53;;;;;;;16.03;8.30;;;;;;;14.08;100.00;95130.09;5060515;28;20578;-80
2022/10/01 02:53:26;;;;;;;12.53;7.80;;;;;;;14.15;100.00;95114.31;5049989;28;20748;-80
2022/10/01 02:55:54;;;;;;;14.13;7.90;;;;;;;14.04;100.00;95123.75;5060841;28;20209;-85
2022/10/01 02:58:20;;;;;;;20.47;7.70;;;;;;;14.13;100.00;95142.50;5058998;28;20205;-86
2022/10/01 03:00:47;;;;;;;14.17;7.97;;;;;;;14.21;100.00;95116.81;5064962;28;20205;-86
2022/10/01 03:03:13;;;;;;;16.53;8.57;;;;;;;14.12;100.00;95120.78;5063515;28;20206;-86
2022/10/01 03:05:42;;;;;;;14.33;8.27;;;;;;;14.15;100.00;95111.69;5059069;28;20205;-86
2022/10/01 03:08:09;;;;;;;11.17;7.97;;;;;;;14.13;100.00;95111.94;5066935;28;20251;-88
2022/10/01 03:10:35;;;;;;;16.47;8.00;;;;;;;14.10;100.00;95109.78;5062101;28;20225;-87
2022/10/01 03:13:04;;;;;;;14.27;7.97;;;;;;;14.29;100.00;95110.41;5058278;28;20233;-90
2022/10/01 03:15:31;;;;;;;13.50;7.93;;;;;;;14.38;100.00;95122.16;5064698;28;20271;-88
2022/10/01 03:17:58;;;;;;;13.47;8.00;;;;;;;14.48;100.00;95125.00;5059926;28;20209;-86
2022/10/01 03:20:25;;;;;;;12.83;8.03;;;;;;;14.58;100.00;95130.44;5061605;28;20197;-88
2022/10/01 03:22:53;;;;;;;11.90;8.30;;;;;;;14.54;100.00;95104.97;5058413;28;20585;-90
2022/10/01 03:25:20;;;;;;;14.23;8.63;;;;;;;14.47;100.00;95133.84;5058926;28;20206;-89
2022/10/01 03:27:47;;;;;;;15.67;9.07;;;;;;;14.49;100.00;95118.72;5063089;28;20228;-80
2022/10/01 03:30:14;;;;;;;12.77;8.30;;;;;;;14.35;100.00;95132.28;5058316;28;20206;-80
2022/10/01 03:32:40;;;;;;;13.30;8.77;;;;;;;14.36;100.00;95149.56;5054157;28;20653;-81
2022/10/01 03:35:08;;;;;;;13.70;8.63;;;;;;;14.36;100.00;95142.53;5055508;28;20228;-80
2022/10/01 03:37:35;;;;;;;12.13;8.13;;;;;;;14.37;100.00;95131.00;5063011;28;20209;-80
2022/10/01 03:40:04;;;;;;;10.93;8.20;;;;;;;14.32;100.00;95130.91;5059952;28;20254;-80
2022/10/01 03:42:31;;;;;;;11.33;8.23;;;;;;;14.38;100.00;95142.28;5060643;28;20252;-80
2022/10/01 03:44:57;;;;;;;14.00;8.57;;;;;;;14.39;100.00;95112.50;5065054;28;20202;-78
2022/10/01 03:47:24;;;;;;;18.20;8.57;;;;;;;14.25;100.00;95104.06;5063296;28;20684;-80
2022/10/01 03:49:51;;;;;;;19.87;8.70;;;;;;;14.32;100.00;95138.75;5057107;28;20265;-80
2022/10/01 03:52:19;;;;;;;15.30;8.60;;;;;;;14.29;100.00;95114.84;5059212;28;20205;-80
2022/10/01 03:54:46;;;;;;;16.97;9.50;;;;;;;14.23;100.00;95106.09;5056743;28;20578;-80
2022/10/01 03:57:14;;;;;;;15.03;9.10;;;;;;;14.23;100.00;95103.50;5054374;28;20651;-79
2022/10/01 03:59:41;;;;;;;18.10;8.97;;;;;;;14.23;100.00;95112.13;5065289;28;20205;-79
2022/10/01 04:02:08;;;;;;;17.47;8.70;;;;;;;14.24;100.00;95099.88;5070046;28;20588;-89
2022/10/01 04:04:35;;;;;;;13.20;8.70;;;;;;;14.35;100.00;95093.03;5073801;28;20205;-88
2022/10/01 04:07:01;;;;;;;17.13;7.80;;;;;;;14.37;100.00;95089.19;5071308;28;20236;-90
2022/10/01 04:09:28;;;;;;;15.70;8.47;;;;;;;14.40;100.00;95078.25;5059129;28;20699;-89
2022/10/01 04:11:55;;;;;;;15.87;8.40;;;;;;;14.41;100.00;95095.53;5056093;28;20210;-87
2022/10/01 04:14:23;;;;;;;17.23;8.30;;;;;;;14.43;100.00;95079.66;5063303;28;20593;-88
2022/10/01 04:16:51;;;;;;;16.30;7.87;;;;;;;14.44;100.00;95110.78;5054948;28;20201;-88
2022/10/01 04:19:18;;;;;;;19.00;10.27;;;;;;;14.37;100.00;95136.25;5062230;28;20208;-90
2022/10/01 04:21:44;;;;;;;15.87;9.60;;;;;;;14.32;100.00;95123.06;5062395;28;20201;-88
2022/10/01 04:24:11;;;;;;;18.93;9.93;;;;;;;14.32;100.00;95130.91;5052170;28;20202;-90
2022/10/01 04:26:38;;;;;;;19.10;10.93;;;;;;;14.31;100.00;95118.84;5061738;28;20573;-90
2022/10/01 04:29:05;;;;;;;23.07;11.30;;;;;;;14.36;100.00;95110.34;5057260;28;20201;-90
2022/10/01 04:31:34;;;;;;;17.53;10.20;;;;;;;14.35;100.00;95100.91;5063558;28;20204;-87
2022/10/01 04:34:01;;;;;;;25.27;14.37;;;;;;;14.35;100.00;95093.84;5059244;28;20229;-79
2022/10/01 04:36:28;;;;;;;31.87;17.53;;;;;;;14.43;100.00;95085.66;5065276;28;20293;-79
2022/10/01 04:38:56;;;;;;;31.37;15.40;;;;;;;14.45;100.00;95094.06;5062250;28;20263;-79
2022/10/01 04:41:24;;;;;;;31.60;15.43;;;;;;;14.40;100.00;95109.63;5064434;28;20206;-80
2022/10/01 04:43:51;;;;;;;28.40;15.47;;;;;;;14.27;100.00;95088.16;5065219;28;20197;-81
2022/10/01 04:46:18;;;;;;;28.60;13.33;;;;;;;14.28;100.00;95100.22;5067135;28;20204;-81
2022/10/01 04:48:47;;;;;;;22.23;14.20;;;;;;;14.24;100.00;95094.63;5065364;28;20286;-80
2022/10/01 04:51:14;;;;;;;21.07;14.37;;;;;;;14.34;100.00;95135.94;5065853;28;20348;-80
2022/10/01 04:53:41;;;;;;;31.37;17.20;;;;;;;14.30;100.00;95125.09;5061893;28;20283;-80
2022/10/01 04:56:08;;;;;;;29.60;18.43;;;;;;;14.36;100.00;95147.75;5059371;28;20730;-81
2022/10/01 04:58:36;;;;;;;32.43;18.27;;;;;;;14.39;100.00;95117.72;5054979;28;20202;-81
2022/10/01 05:01:02;;;;;;;31.23;21.60;;;;;;;14.19;100.00;95131.94;5056326;28;20269;-79
2022/10/01 05:03:30;;;;;;;43.63;19.53;;;;;;;14.16;100.00;95142.03;5063854;28;20591;-82
2022/10/01 05:05:58;;;;;;;29.03;18.53;;;;;;;14.19;100.00;95145.00;5060223;28;20229;-80
2022/10/01 05:08:26;;;;;;;26.23;17.43;;;;;;;14.27;100.00;95153.50;5059790;28;20294;-80
2022/10/01 05:10:53;;;;;;;36.63;18.33;;;;;;;14.36;100.00;95152.19;5063049;28;20209;-79
2022/10/01 05:13:20;;;;;;;31.53;17.00;;;;;;;14.23;100.00;95153.16;5061360;28;20288;-80
2022/10/01 05:15:49;;;;;;;32.07;17.80;;;;;;;14.33;100.00;95142.97;5062073;28;20214;-75
2022/10/01 05:18:15;;;;;;;34.87;16.93;;;;;;;14.26;100.00;95160.56;5062634;28;20209;-76
2022/10/01 05:20:42;;;;;;;31.40;18.13;;;;;;;14.26;100.00;95142.25;5062764;28;20287;-74
2022/10/01 05:23:10;;;;;;;30.20;17.37;;;;;;;14.26;100.00;95155.31;5059730;28;20660;-75
2022/10/01 05:25:37;;;;;;;24.80;15.67;;;;;;;14.33;100.00;95145.59;5059399;28;20221;-77
2022/10/01 05:28:04;;;;;;;30.37;16.57;;;;;;;14.36;100.00;95150.38;5059030;28;20230;-75
2022/10/01 05:30:32;;;;;;;22.87;15.20;;;;;;;14.50;100.00;95145.69;5058663;28;20213;-75
2022/10/01 05:33:01;;;;;;;28.93;16.43;;;;;;;14.60;100.00;95140.69;5054683;28;20202;-74
2022/10/01 05:35:28;;;;;;;23.83;14.80;;;;;;;14.75;100.00;95159.28;5054463;28;20774;-75
2022/10/01 05:37:56;;;;;;;25.90;14.33;;;;;;;14.86;100.00;95168.94;5057090;28;20202;-74
2022/10/01 05:40:26;;;;;;;22.63;12.77;;;;;;;15.00;100.00;95151.16;5055567;28;20208;-75
2022/10/01 05:42:54;;;;;;;23.50;11.23;;;;;;;14.97;100.00;95156.84;5055379;28;20201;-79
2022/10/01 05:45:21;;;;;;;21.27;11.40;;;;;;;15.04;100.00;95139.16;5054484;28;20285;-75
2022/10/01 05:47:55;;;;;;;19.13;10.43;;;;;;;15.13;100.00;95111.59;5055845;28;20229;-76
2022/10/01 05:50:27;;;;;;;17.57;11.07;;;;;;;15.23;100.00;95119.66;5058682;28;20600;-74
2022/10/01 05:52:54;;;;;;;15.57;10.63;;;;;;;15.29;100.00;95127.34;5056903;28;20266;-74
2022/10/01 05:55:26;;;;;;;19.07;10.63;;;;;;;15.37;100.00;95112.28;5053448;28;20245;-76
2022/10/01 05:58:02;;;;;;;16.17;11.00;;;;;;;15.43;100.00;95122.63;5056269;28;20295;-76
2022/10/01 06:00:30;;;;;;;14.90;10.03;;;;;;;15.48;100.00;95135.03;5058747;28;20658;-74
2022/10/01 06:02:57;;;;;;;15.93;10.57;;;;;;;15.54;100.00;95149.81;5057368;28;20659;-75
2022/10/01 06:05:25;;;;;;;18.80;10.20;;;;;;;15.60;100.00;95148.88;5053148;28;20209;-76
2022/10/01 06:07:52;;;;;;;23.07;11.10;;;;;;;15.64;100.00;95163.09;5062231;28;20201;-75
2022/10/01 06:10:20;;;;;;;18.03;10.50;;;;;;;15.72;100.00;95176.59;5056900;28;20583;-76
2022/10/01 06:12:49;;;;;;;18.20;10.97;;;;;;;15.71;100.00;95169.75;5062808;28;20232;-86
2022/10/01 06:15:17;;;;;;;19.53;11.03;;;;;;;15.84;100.00;95189.66;5068123;28;20611;-79
2022/10/01 06:17:45;;;;;;;17.30;10.47;;;;;;;15.81;100.00;95195.34;5059324;28;20206;-80
2022/10/01 06:20:14;;;;;;;19.70;10.47;;;;;;;15.82;100.00;95168.91;5061496;28;20208;-81
2022/10/01 06:22:42;;;;;;;20.00;10.83;;;;;;;15.78;100.00;95183.53;5053874;28;20210;-80
2022/10/01 06:25:10;;;;;;;20.30;10.83;;;;;;;15.74;100.00;95195.50;5057873;28;20229;-80
2022/10/01 06:27:38;;;;;;;16.57;10.40;;;;;;;15.73;100.00;95198.34;5055587;28;20585;-81
2022/10/01 06:30:07;;;;;;;16.53;10.13;;;;;;;15.74;100.00;95190.25;5057695;28;20206;-80
2022/10/01 06:32:35;;;;;;;19.17;9.30;;;;;;;15.80;100.00;95194.56;5052665;28;20209;-71
2022/10/01 06:35:02;;;;;;;15.37;8.67;;;;;;;15.79;100.00;95192.97;5060371;28;20259;-76
2022/10/01 06:37:29;;;;;;;15.20;9.27;;;;;;;15.79;100.00;95179.06;5063987;28;20190;-78
2022/10/01 06:39:56;;;;;;;25.10;10.40;;;;;;;15.86;100.00;95175.25;5053373;28;20209;-80
2022/10/01 06:42:23;;;;;;;20.67;9.20;;;;;;;15.99;100.00;95194.34;5057791;28;20209;-77
2022/10/01 06:45:00;;;;;;;14.20;9.77;;;;;;;16.01;100.00;95173.91;5061711;28;20770;-78
2022/10/01 06:47:28;;;;;;;15.47;9.73;;;;;;;16.05;100.00;95173.19;5058184;28;20210;-79
2022/10/01 06:49:55;;;;;;;21.43;10.40;;;;;;;16.11;100.00;95156.50;5057490;28;20244;-78
2022/10/01 06:55:08;;;;;;;18.57;10.50;;;;;;;16.15;100.00;95191.72;5054468;28;20229;-78
2022/10/01 06:57:34;;;;;;;18.93;10.50;;;;;;;16.10;100.00;95178.53;5059427;28;20202;-83
2022/10/01 07:00:01;;;;;;;21.73;10.87;;;;;;;16.17;100.00;95175.72;5059821;28;20328;-73
2022/10/01 07:02:31;;;;;;;21.27;11.03;;;;;;;16.19;100.00;95163.97;5053406;28;20696;-84
2022/10/01 07:04:58;;;;;;;20.23;11.13;;;;;;;16.25;100.00;95162.22;5053578;28;20210;-82
2022/10/01 07:07:28;;;;;;;25.23;10.90;;;;;;;16.35;100.00;95175.50;5054752;28;20257;-84
2022/10/01 07:09:55;;;;;;;22.53;11.40;;;;;;;16.44;100.00;95195.03;5058694;28;20217;-85
2022/10/01 07:12:22;;;;;;;21.17;11.50;;;;;;;16.53;100.00;95219.84;5056366;28;20202;-84
2022/10/01 07:14:49;;;;;;;16.83;11.73;;;;;;;16.63;100.00;95229.69;5063091;28;20221;-84
2022/10/01 07:17:15;;;;;;;17.57;10.97;;;;;;;16.82;100.00;95220.53;5056202;28;20209;-81
2022/10/01 07:19:44;;;;;;;16.83;10.43;;;;;;;16.93;100.00;95217.81;5058106;28;20236;-82
2022/10/01 07:22:10;;;;;;;21.80;10.27;;;;;;;17.08;100.00;95214.56;5059135;28;20232;-89
2022/10/01 07:24:37;;;;;;;15.40;9.57;;;;;;;17.22;100.00;95202.66;5055746;28;20217;-80
2022/10/01 07:27:04;;;;;;;16.10;10.83;;;;;;;17.39;100.00;95200.75;5055256;28;20197;-79
2022/10/01 07:29:31;;;;;;;17.80;10.47;;;;;;;17.56;100.00;95193.59;5055358;28;20645;-80
2022/10/01 07:31:59;;;;;;;21.53;10.43;;;;;;;17.70;100.00;95180.84;5058878;28;20201;-80
2022/10/01 07:34:27;;;;;;;17.70;9.83;;;;;;;17.80;100.00;95177.53;5055887;28;20226;-81
2022/10/01 07:36:55;;;;;;;18.60;9.77;;;;;;;18.01;100.00;95182.69;5063495;28;20205;-81
2022/10/01 07:39:22;;;;;;;22.40;10.50;;;;;;;18.15;99.58;95173.34;5061427;28;20656;-81
2022/10/01 07:41:50;;;;;;;20.63;10.20;;;;;;;18.28;99.50;95168.69;5061095;28;20212;-81
2022/10/01 07:44:17;;;;;;;17.83;10.73;;;;;;;18.43;99.54;95172.22;5060864;28;20263;-80
2022/10/01 07:46:44;;;;;;;14.88;9.43;;;;;;;18.56;98.53;95179.69;5057229;28;20676;-81
2022/10/01 07:49:11;;;;;;;15.77;9.20;;;;;;;18.75;95.45;95176.66;5060344;28;20286;-82
2022/10/01 07:51:38;;;;;;;16.77;8.93;;;;;;;18.79;94.96;95183.78;5061512;28;20237;-81
2022/10/01 07:54:06;;;;;;;12.85;8.43;;;;;;;18.82;95.33;95177.19;5056580;28;20209;-81
2022/10/01 07:56:33;;;;;;;14.20;8.65;;;;;;;18.92;96.31;95204.41;5060664;28;20209;-81
2022/10/01 07:58:59;;;;;;;13.73;8.80;;;;;;;18.94;95.90;95202.31;5055016;28;20213;-82
2022/10/01 08:01:27;;;;;;;13.27;8.20;;;;;;;19.03;93.97;95206.03;5064548;28;20205;-80
2022/10/01 08:03:54;;;;;;;15.13;8.25;;;;;;;19.12;93.99;95206.34;5064774;28;20204;-81
2022/10/01 08:06:21;;;;;;;15.77;8.23;;;;;;;19.18;94.83;95177.13;5059425;28;20679;-81
2022/10/01 08:08:48;;;;;;;12.82;7.95;;;;;;;19.14;93.96;95172.59;5062094;28;20591;-80
2022/10/01 08:11:17;;;;;;;19.17;8.60;;;;;;;19.25;92.60;95163.69;5064573;28;20213;-81
2022/10/01 08:13:44;;;;;;;14.43;8.65;;;;;;;19.26;92.97;95160.81;5062576;28;20297;-81
2022/10/01 08:16:12;;;;;;;18.58;8.07;;;;;;;19.21;92.38;95138.91;5061862;28;20307;-81
2022/10/01 08:18:40;;;;;;;21.05;8.68;;;;;;;19.18;92.51;95150.75;5062980;28;21170;-82
2022/10/01 08:21:07;;;;;;;17.20;8.50;;;;;;;19.25;92.58;95143.38;5059938;28;20680;-80
2022/10/01 08:23:35;;;;;;;20.70;8.65;;;;;;;19.19;92.52;95144.44;5067154;28;20612;-80
2022/10/01 08:26:06;;;;;;;23.08;8.63;;;;;;;19.23;91.84;95136.78;5061363;28;20205;-81
2022/10/01 08:28:35;;;;;;;17.50;8.77;;;;;;;19.13;93.25;95134.16;5060590;28;20270;-81
2022/10/01 08:31:06;;;;;;;11.82;7.90;;;;;;;19.15;91.72;95145.22;5059258;28;20209;-81
2022/10/01 08:33:33;;;;;;;16.60;8.75;;;;;;;19.19;91.72;95154.19;5068308;28;20196;-81
2022/10/01 08:36:01;;;;;;;15.52;8.32;;;;;;;19.23;91.79;95140.22;5061851;28;20222;-81
2022/10/01 08:38:28;;;;;;;13.02;7.55;;;;;;;19.20;92.04;95135.47;5067374;28;20205;-80
2022/10/01 08:40:55;;;;;;;16.85;8.43;;;;;;;19.26;91.92;95144.97;5062569;28;20258;-80
2022/10/01 08:43:30;;;;;;;17.13;8.57;;;;;;;19.27;92.42;95122.84;5062288;28;20227;-80
2022/10/01 08:46:03;;;;;;;15.48;8.77;;;;;;;19.24;93.04;95110.19;5061511;28;20597;-80
2022/10/01 08:48:47;;;;;;;19.20;8.82;;;;;;;19.33;92.62;95122.88;5062740;28;20272;-80
2022/10/01 08:51:23;;;;;;;22.58;9.27;;;;;;;19.33;92.58;95130.78;5070575;28;20614;-83
2022/10/01 08:53:55;;;;;;;16.65;8.55;;;;;;;19.23;92.44;95116.50;5065412;28;20201;-80
2022/10/01 08:56:27;;;;;;;24.80;9.60;;;;;;;19.30;93.50;95131.28;5061314;28;20218;-81
2022/10/01 08:58:58;;;;;;;21.10;9.60;;;;;;;19.20;94.28;95140.75;5053037;28;20210;-82
2022/10/01 09:01:28;;;;;;;21.15;9.15;;;;;;;19.22;93.91;95161.56;5056913;28;20287;-81
2022/10/01 09:03:55;;;;;;;16.55;9.70;;;;;;;19.20;94.32;95130.19;5057767;28;20596;-81
2022/10/01 09:06:25;;;;;;;19.40;9.10;;;;;;;19.21;93.51;95142.34;5063868;28;20204;-80
2022/10/01 09:09:21;;;;;;;14.70;9.00;;;;;;;19.27;94.41;95164.22;5060049;28;20248;-80
2022/10/01 09:12:04;;;;;;;16.13;9.20;;;;;;;19.20;95.83;95155.75;5064912;28;20293;-83
2022/10/01 09:14:51;;;;;;;26.45;9.20;;;;;;;19.11;94.60;95218.72;5060866;28;20198;-81
2022/10/01 09:17:31;;;;;;;18.42;9.23;;;;;;;19.14;93.90;95235.84;5060785;28;20697;-81
2022/10/01 09:20:10;;;;;;;14.82;8.77;;;;;;;19.07;93.95;95230.84;5055909;28;20201;-81
2022/10/01 09:22:39;;;;;;;22.23;9.38;;;;;;;18.84;96.68;95212.81;5057106;28;20197;-81
2022/10/01 09:25:18;;;;;;;18.75;9.55;;;;;;;18.93;95.81;95219.16;5058321;28;20554;-83
2022/10/01 09:27:46;;;;;;;15.63;8.98;;;;;;;18.92;96.38;95246.56;5060039;28;20206;-81
2022/10/01 09:30:18;;;;;;;16.58;9.18;;;;;;;18.93;95.73;95239.47;5071355;28;20217;-80
2022/10/01 09:32:52;;;;;;;17.10;9.52;;;;;;;18.92;95.94;95228.13;5059289;28;20220;-82
2022/10/01 09:35:31;;;;;;;24.40;9.63;;;;;;;18.91;97.06;95239.69;5057446;28;20229;-82
2022/10/01 09:38:03;;;;;;;30.27;9.95;;;;;;;18.86;98.59;95247.56;5060002;28;20201;-80
2022/10/01 09:40:35;;;;;;;15.85;10.07;;;;;;;18.87;99.26;95241.28;5066179;28;20200;-80
2022/10/01 09:43:06;;;;;;;24.20;10.43;;;;;;;18.82;99.49;95243.84;5061889;28;20254;-80
2022/10/01 09:45:34;;;;;;;16.08;10.07;;;;;;;18.86;99.33;95223.88;5066808;28;20255;-79
2022/10/01 09:48:14;;;;;;;22.25;10.88;;;;;;;18.82;100.00;95206.97;5065786;28;20209;-81
2022/10/01 09:50:49;;;;;;;16.42;10.13;;;;;;;18.81;100.00;95194.06;5059519;28;20260;-80
2022/10/01 09:53:19;;;;;;;20.48;10.35;;;;;;;18.72;100.00;95164.78;5065820;28;20208;-81
2022/10/01 09:55:54;;;;;;;24.92;10.82;;;;;;;18.84;100.00;95157.50;5060882;28;20225;-81
2022/10/01 09:58:23;;;;;;;19.95;10.13;;;;;;;18.92;100.00;95153.56;5055387;28;20194;-82
2022/10/01 10:00:53;;;;;;;20.08;10.70;;;;;;;18.92;100.00;95180.69;5059646;28;20202;-81
2022/10/01 10:03:29;;;;;;;22.75;10.38;;;;;;;18.91;100.00;95165.94;5060191;28;20198;-81
2022/10/01 10:05:58;;;;;;;18.13;10.20;;;;;;;18.91;100.00;95136.94;5066541;28;20270;-82
2022/10/01 10:08:29;;;;;;;21.85;8.85;;;;;;;18.83;100.00;95153.25;5062131;28;20198;-81
2022/10/01 10:10:59;;;;;;;15.02;8.57;;;;;;;18.93;100.00;95165.69;5061987;28;20668;-81
2022/10/01 10:13:33;;;;;;;24.42;9.20;;;;;;;18.98;100.00;95155.97;5059282;28;20205;-81
2022/10/01 10:16:07;;;;;;;16.85;8.55;;;;;;;19.01;100.00;95142.28;5058070;28;20603;-81
2022/10/01 10:18:38;;;;;;;17.98;8.73;;;;;;;19.13;100.00;95174.44;5058757;28;20252;-82
2022/10/01 10:21:07;;;;;;;17.60;9.10;;;;;;;19.20;100.00;95171.56;5067108;28;20668;-81
2022/10/01 10:23:34;;;;;;;17.25;9.07;;;;;;;19.25;100.00;95163.69;5058706;28;20556;-84
2022/10/01 10:26:03;;;;;;;16.70;9.10;;;;;;;19.17;100.00;95148.38;5067322;28;20197;-81
2022/10/01 10:28:40;;;;;;;14.98;10.10;;;;;;;19.18;100.00;95163.16;5059881;28;20214;-82
2022/10/01 10:31:13;;;;;;;19.02;10.10;;;;;;;19.14;100.00;95156.78;5056878;28;20681;-81
2022/10/01 10:33:48;;;;;;;19.20;9.43;;;;;;;19.19;100.00;95175.28;5057263;28;20686;-81
2022/10/01 10:36:16;;;;;;;20.55;10.85;;;;;;;19.13;100.00;95182.34;5063134;28;20224;-82
2022/10/01 10:38:48;;;;;;;18.92;10.30;;;;;;;19.09;100.00;95193.69;5064054;28;20210;-81
2022/10/01 10:41:18;;;;;;;15.43;9.73;;;;;;;19.05;100.00;95184.69;5059349;28;20201;-82
2022/10/01 10:43:48;;;;;;;21.02;10.75;;;;;;;18.98;100.00;95184.16;5067832;28;20301;-84
2022/10/01 10:46:22;;;;;;;18.10;10.57;;;;;;;18.95;100.00;95172.28;5064510;28;20244;-80
2022/10/01 10:48:59;;;;;;;16.38;10.50;;;;;;;18.89;100.00;95130.38;5068108;28;20201;-82
2022/10/01 10:51:27;;;;;;;16.70;10.18;;;;;;;18.82;100.00;95127.16;5062221;28;20723;-81
2022/10/01 10:53:53;;;;;;;21.17;10.90;;;;;;;18.75;100.00;95132.69;5062416;28;20201;-80
2022/10/01 10:56:22;;;;;;;19.38;10.82;;;;;;;18.84;100.00;95133.78;5058632;28;20308;-81
2022/10/01 10:58:50;;;;;;;20.92;11.05;;;;;;;18.88;100.00;95124.28;5058102;28;20680;-81
2022/10/01 11:01:21;;;;;;;18.13;10.80;;;;;;;18.89;100.00;95133.78;5057357;28;20213;-81
2022/10/01 11:03:54;;;;;;;19.83;10.95;;;;;;;18.86;100.00;95126.41;5055200;28;21071;-81
2022/10/01 11:06:21;;;;;;;20.55;11.07;;;;;;;18.88;100.00;95131.41;5056369;28;20209;-83
2022/10/01 11:08:57;;;;;;;19.02;11.80;;;;;;;18.83;100.00;95132.19;5058684;28;20224;-80
2022/10/01 11:11:39;;;;;;;16.55;11.27;;;;;;;18.89;100.00;95104.03;5060022;28;20271;-80
2022/10/01 11:14:22;;;;;;;15.57;10.57;;;;;;;18.99;100.00;95112.75;5059291;28;20193;-80
2022/10/01 11:17:06;;;;;;;17.42;11.52;;;;;;;19.15;100.00;95101.22;5058911;28;20302;-80
2022/10/01 11:19:45;;;;;;;18.98;10.85;;;;;;;19.19;100.00;95086.44;5056956;28;20238;-80
2022/10/01 11:22:33;;;;;;;14.60;10.77;;;;;;;19.27;100.00;95051.69;5058101;28;20683;-80
2022/10/01 11:25:26;;;;;;;17.17;11.15;;;;;;;19.24;100.00;95051.41;5062608;28;20198;-80
2022/10/01 11:28:06;;;;;;;16.15;11.48;;;;;;;19.20;100.00;95074.84;5060087;28;20205;-80
2022/10/01 11:30:40;;;;;;;21.23;11.65;;;;;;;19.10;100.00;95084.59;5057155;28;20201;-83